Time;durP1;ratioP1;P1;durP2;ratioP2;P2;SDS_P1;SDS_P2;PMS_P1;PMS_P2;Temp;Humidity;BMP_temperature;BMP_pressure;BME280_temperature;BME280_humidity;BME280_pressure;Samples;Min_cycle;Max_cycle;Signal;HPM_P1;HPM_P2
2023/05/22 00:01:25;;;;;;;31.55;28.17;;;18.50;99.90;;;;;;5038369;28;20087;-33
2023/05/22 00:03:51;;;;;;;29.95;26.27;;;18.50;99.90;;;;;;5055617;28;20036;-34
2023/05/22 00:06:17;;;;;;;29.00;26.05;;;18.50;99.90;;;;;;5056128;28;20033;-33
2023/05/22 00:08:43;;;;;;;29.90;26.67;;;18.50;99.90;;;;;;5054353;28;20086;-33
2023/05/22 00:11:09;;;;;;;29.00;25.50;;;18.40;99.90;;;;;;5053806;28;20139;-33
2023/05/22 00:13:35;;;;;;;30.92;27.75;;;18.40;99.90;;;;;;5054298;28;20037;-33
2023/05/22 00:16:01;;;;;;;31.75;28.33;;;18.40;99.90;;;;;;5070730;28;20656;-33
2023/05/22 00:18:27;;;;;;;30.70;27.40;;;18.40;99.90;;;;;;5035721;28;20129;-33
2023/05/22 00:20:53;;;;;;;34.83;30.05;;;18.40;99.90;;;;;;5054361;28;20504;-33
2023/05/22 00:23:20;;;;;;;31.27;27.73;;;18.30;99.90;;;;;;5051399;28;20395;-33
2023/05/22 00:25:46;;;;;;;32.20;26.73;;;18.30;99.90;;;;;;5054207;28;20045;-33
2023/05/22 00:28:12;;;;;;;31.77;28.38;;;18.30;99.90;;;;;;5053974;28;20037;-33
2023/05/22 00:30:38;;;;;;;31.67;28.02;;;18.30;99.90;;;;;;5070369;28;20504;-33
2023/05/22 00:33:04;;;;;;;35.45;30.05;;;18.30;99.90;;;;;;5034228;28;20040;-33
2023/05/22 00:35:30;;;;;;;32.95;28.75;;;18.30;99.90;;;;;;5051358;28;20036;-33
2023/05/22 00:37:55;;;;;;;30.00;27.02;;;18.30;99.90;;;;;;5053827;28;20072;-33
2023/05/22 00:40:21;;;;;;;34.65;31.00;;;18.20;99.90;;;;;;5052750;28;20375;-33
2023/05/22 00:42:47;;;;;;;33.92;30.20;;;18.20;99.90;;;;;;5053251;28;20033;-33
2023/05/22 00:45:16;;;;;;;31.10;27.95;;;18.20;99.90;;;;;;5054008;28;20398;-33
2023/05/22 00:47:42;;;;;;;33.50;29.88;;;18.20;99.90;;;;;;5053862;28;20028;-33
2023/05/22 00:50:10;;;;;;;35.47;31.73;;;18.20;99.90;;;;;;5053923;28;20038;-33
2023/05/22 00:52:40;;;;;;;34.50;30.48;;;18.10;99.90;;;;;;5066404;28;20401;-34
2023/05/22 00:55:07;;;;;;;34.55;30.95;;;18.10;99.90;;;;;;5054355;28;20040;-33
2023/05/22 00:57:34;;;;;;;32.45;29.08;;;18.10;99.90;;;;;;5053243;28;20385;-33
2023/05/22 01:00:01;;;;;;;33.97;29.70;;;18.10;99.90;;;;;;5054040;28;20559;-33
2023/05/22 01:02:31;;;;;;;34.90;31.00;;;18.10;99.90;;;;;;5053188;28;20068;-33
2023/05/22 01:04:57;;;;;;;35.03;31.23;;;18.10;99.90;;;;;;5053478;28;20127;-33
2023/05/22 01:07:23;;;;;;;34.03;30.52;;;18.00;99.90;;;;;;5053298;28;20044;-33
2023/05/22 01:09:51;;;;;;;33.03;29.55;;;18.00;99.90;;;;;;5050493;28;20113;-33
2023/05/22 01:12:41;;;;;;;33.40;29.92;;;18.00;99.90;;;;;;5053924;28;20032;-33
2023/05/22 01:15:30;;;;;;;31.83;28.42;;;18.00;99.90;;;;;;5052525;28;20121;-33
2023/05/22 01:18:09;;;;;;;34.75;31.02;;;18.00;99.90;;;;;;5050626;28;20568;-33
2023/05/22 01:21:03;;;;;;;39.83;34.03;;;17.90;99.90;;;;;;5052661;28;20116;-33
2023/05/22 01:23:35;;;;;;;36.20;32.40;;;17.90;99.90;;;;;;5050216;28;20029;-34
2023/05/22 01:26:12;;;;;;;38.10;33.05;;;17.90;99.90;;;;;;5053106;28;20040;-33
2023/05/22 01:28:55;;;;;;;37.47;33.40;;;17.90;99.90;;;;;;5052294;28;20078;-34
2023/05/22 01:31:26;;;;;;;38.72;32.90;;;17.80;99.90;;;;;;5052862;28;20039;-34
2023/05/22 01:33:57;;;;;;;32.00;28.38;;;17.80;99.90;;;;;;5052187;28;20042;-34
2023/05/22 01:36:27;;;;;;;36.92;31.92;;;17.80;99.90;;;;;;5045912;28;20093;-34
2023/05/22 01:38:54;;;;;;;35.72;30.30;;;17.80;99.90;;;;;;5051778;28;20039;-34
2023/05/22 01:41:20;;;;;;;36.78;32.97;;;17.80;99.90;;;;;;5052844;28;20086;-34
2023/05/22 01:43:46;;;;;;;36.13;31.38;;;17.70;99.90;;;;;;5052207;28;20036;-34
2023/05/22 01:46:12;;;;;;;37.35;33.35;;;17.70;99.90;;;;;;5052839;28;20115;-34
2023/05/22 01:48:38;;;;;;;39.20;32.90;;;17.70;99.90;;;;;;5051988;28;20043;-34
2023/05/22 01:51:19;;;;;;;35.67;31.85;;;17.70;99.90;;;;;;5053069;28;20040;-34
2023/05/22 01:54:04;;;;;;;33.60;30.13;;;17.60;99.90;;;;;;5050003;28;20562;-34
2023/05/22 01:56:47;;;;;;;34.85;31.05;;;17.60;99.90;;;;;;5050416;28;20378;-33
2023/05/22 01:59:17;;;;;;;34.97;31.17;;;17.50;99.90;;;;;;5052521;28;20075;-34
2023/05/22 02:01:43;;;;;;;36.08;30.88;;;17.50;99.90;;;;;;5070208;28;20048;-34
2023/05/22 02:04:09;;;;;;;34.30;30.48;;;17.50;99.90;;;;;;5052368;28;20028;-33
2023/05/22 02:06:36;;;;;;;43.13;37.17;;;17.50;99.90;;;;;;5063090;28;20099;-33
2023/05/22 02:09:02;;;;;;;35.40;31.55;;;17.50;99.90;;;;;;5052244;28;20040;-33
2023/05/22 02:11:31;;;;;;;31.75;28.13;;;17.50;99.90;;;;;;5068893;28;20090;-33
2023/05/22 02:13:57;;;;;;;38.05;33.72;;;17.50;99.90;;;;;;5051882;28;21560;-33
2023/05/22 02:16:23;;;;;;;36.22;32.38;;;17.50;99.90;;;;;;5066806;28;20037;-33
2023/05/22 02:18:50;;;;;;;34.40;29.63;;;17.50;99.90;;;;;;5051819;28;20067;-33
2023/05/22 02:21:15;;;;;;;33.78;30.05;;;17.50;99.90;;;;;;5052136;28;20037;-33
2023/05/22 02:23:41;;;;;;;34.75;31.05;;;17.50;99.90;;;;;;5061353;28;20127;-33
2023/05/22 02:26:07;;;;;;;38.33;31.75;;;17.50;99.90;;;;;;5051356;28;20052;-33
2023/05/22 02:28:36;;;;;;;35.22;31.42;;;17.40;99.90;;;;;;5068633;28;20540;-33
2023/05/22 02:31:02;;;;;;;36.63;32.67;;;17.50;99.90;;;;;;5051900;28;20041;-33
2023/05/22 02:33:28;;;;;;;40.47;35.40;;;17.50;99.90;;;;;;5051625;28;20413;-33
2023/05/22 02:35:54;;;;;;;33.83;29.73;;;17.40;99.90;;;;;;5052079;28;20080;-33
2023/05/22 02:38:20;;;;;;;36.40;31.00;;;17.40;99.90;;;;;;5051507;28;20543;-33
2023/05/22 02:40:45;;;;;;;35.65;31.83;;;17.40;99.90;;;;;;5051426;28;20052;-33
2023/05/22 02:43:11;;;;;;;36.65;31.95;;;17.40;99.90;;;;;;5051478;28;20367;-34
2023/05/22 02:45:37;;;;;;;36.78;32.88;;;17.40;99.90;;;;;;5068619;28;20060;-33
2023/05/22 02:48:03;;;;;;;35.05;31.27;;;17.40;99.90;;;;;;5051129;28;20033;-34
2023/05/22 02:50:29;;;;;;;35.15;31.38;;;17.40;99.90;;;;;;5051858;28;20040;-34
2023/05/22 02:52:54;;;;;;;34.40;30.77;;;17.40;99.90;;;;;;5042981;28;20131;-32
2023/05/22 02:55:20;;;;;;;35.20;31.40;;;17.30;99.90;;;;;;5051907;28;20040;-32
2023/05/22 02:57:46;;;;;;;38.70;33.90;;;17.30;99.90;;;;;;5068581;28;20111;-32
2023/05/22 03:00:12;;;;;;;39.92;33.67;;;17.40;99.90;;;;;;5051732;28;20124;-33
2023/05/22 03:02:38;;;;;;;38.95;34.25;;;17.40;99.90;;;;;;5068164;28;20064;-34
2023/05/22 03:05:05;;;;;;;36.40;32.60;;;17.40;99.90;;;;;;5052053;28;20078;-33
2023/05/22 03:07:30;;;;;;;34.20;30.42;;;17.40;99.90;;;;;;5051901;28;20539;-33
2023/05/22 03:09:56;;;;;;;36.95;31.10;;;17.30;99.90;;;;;;5052030;28;20036;-33
2023/05/22 03:12:22;;;;;;;36.38;30.42;;;17.30;99.90;;;;;;5051730;28;20044;-33
2023/05/22 03:14:48;;;;;;;40.65;34.47;;;17.30;99.90;;;;;;5050398;28;20044;-34
2023/05/22 03:17:14;;;;;;;36.22;30.75;;;17.40;99.90;;;;;;5050506;28;20089;-33
2023/05/22 03:19:40;;;;;;;36.78;32.35;;;17.30;99.90;;;;;;5053132;28;20042;-33
2023/05/22 03:22:06;;;;;;;34.83;31.13;;;17.30;99.90;;;;;;5053211;28;20414;-33
2023/05/22 03:24:31;;;;;;;33.75;29.45;;;17.30;99.90;;;;;;5052946;28;20044;-33
2023/05/22 03:26:59;;;;;;;35.35;31.00;;;17.30;99.90;;;;;;5052756;28;20032;-33
2023/05/22 03:29:25;;;;;;;38.17;33.97;;;17.40;99.90;;;;;;5031442;28;20037;-33
2023/05/22 03:31:53;;;;;;;35.33;31.52;;;17.30;99.90;;;;;;5056318;28;20040;-33
2023/05/22 03:34:21;;;;;;;35.95;30.60;;;17.30;99.90;;;;;;5062354;28;20492;-33
2023/05/22 03:36:47;;;;;;;34.58;30.92;;;17.40;99.90;;;;;;5056608;28;20213;-33
2023/05/22 03:39:12;;;;;;;31.67;28.38;;;17.40;99.90;;;;;;5062127;28;20119;-33
2023/05/22 03:41:38;;;;;;;32.55;28.38;;;17.40;99.90;;;;;;5056416;28;20070;-34
2023/05/22 03:44:04;;;;;;;32.33;28.95;;;17.40;99.90;;;;;;5071300;28;20020;-35
2023/05/22 03:46:30;;;;;;;33.00;29.40;;;17.40;99.90;;;;;;5055049;28;20025;-35
2023/05/22 03:48:56;;;;;;;35.45;31.65;;;17.40;99.90;;;;;;5054975;28;20035;-34
2023/05/22 03:51:22;;;;;;;36.30;31.27;;;17.40;99.90;;;;;;5055187;28;20124;-34
2023/05/22 03:53:48;;;;;;;33.83;30.23;;;17.40;99.90;;;;;;5054615;28;20044;-34
2023/05/22 03:56:13;;;;;;;32.33;28.90;;;17.40;99.90;;;;;;5055217;28;20033;-34
2023/05/22 03:58:39;;;;;;;33.55;30.05;;;17.40;99.90;;;;;;5054249;28;20048;-34
2023/05/22 04:01:05;;;;;;;35.28;31.65;;;17.30;99.90;;;;;;5054055;28;20115;-34
2023/05/22 04:03:31;;;;;;;33.88;30.33;;;17.30;99.90;;;;;;5055122;28;20029;-34
2023/05/22 04:05:57;;;;;;;36.00;32.17;;;17.30;99.90;;;;;;5055391;28;20039;-33
2023/05/22 04:08:23;;;;;;;39.55;33.08;;;17.40;99.90;;;;;;5054738;28;20043;-33
2023/05/22 04:10:49;;;;;;;29.50;26.35;;;17.30;99.90;;;;;;5054418;28;20044;-33
2023/05/22 04:13:16;;;;;;;39.53;34.50;;;17.30;99.90;;;;;;5071463;28;20084;-33
2023/05/22 04:15:45;;;;;;;34.58;30.95;;;17.30;99.90;;;;;;5071088;28;20471;-33
2023/05/22 04:18:11;;;;;;;31.95;28.70;;;17.30;99.90;;;;;;5072034;28;21602;-34
2023/05/22 04:20:37;;;;;;;37.65;33.55;;;17.30;99.90;;;;;;5052844;28;20037;-34
2023/05/22 04:23:03;;;;;;;36.10;32.20;;;17.30;99.90;;;;;;5070483;28;20034;-34
2023/05/22 04:25:30;;;;;;;33.88;30.30;;;17.30;99.90;;;;;;5073287;28;20071;-34
2023/05/22 04:27:56;;;;;;;34.38;30.75;;;17.30;99.90;;;;;;5053564;28;20500;-33
2023/05/22 04:30:24;;;;;;;34.33;29.60;;;17.30;99.90;;;;;;5055125;28;20075;-34
2023/05/22 04:32:50;;;;;;;33.35;29.80;;;17.30;99.90;;;;;;5051703;28;20453;-34
2023/05/22 04:35:17;;;;;;;35.72;31.92;;;17.30;99.90;;;;;;5070956;28;20128;-34
2023/05/22 04:37:44;;;;;;;35.35;31.70;;;17.30;99.90;;;;;;5053446;28;20119;-34
2023/05/22 04:40:11;;;;;;;32.45;29.17;;;17.30;99.90;;;;;;5053017;28;20036;-34
2023/05/22 04:42:37;;;;;;;34.15;30.55;;;17.30;99.90;;;;;;5049917;28;20440;-34
2023/05/22 04:45:04;;;;;;;32.28;28.98;;;17.40;99.90;;;;;;5042046;28;20417;-34
2023/05/22 04:47:33;;;;;;;33.97;30.27;;;17.40;99.90;;;;;;5050868;28;20437;-34
2023/05/22 04:49:59;;;;;;;34.00;30.40;;;17.40;99.90;;;;;;5052841;28;20047;-34
2023/05/22 04:52:25;;;;;;;33.72;29.75;;;17.40;99.90;;;;;;5053365;28;20032;-34
2023/05/22 04:54:51;;;;;;;32.90;29.45;;;17.40;99.90;;;;;;5053462;28;20167;-34
2023/05/22 04:57:18;;;;;;;37.35;29.92;;;17.40;99.90;;;;;;5051145;28;20036;-34
2023/05/22 04:59:45;;;;;;;35.25;31.45;;;17.40;99.90;;;;;;5027500;28;20044;-34
2023/05/22 05:02:11;;;;;;;33.47;28.98;;;17.40;99.90;;;;;;5059585;28;20393;-33
2023/05/22 05:04:37;;;;;;;33.50;29.85;;;17.40;99.90;;;;;;5040447;28;20040;-33
2023/05/22 05:07:04;;;;;;;34.08;30.45;;;17.50;99.90;;;;;;5049156;28;20481;-34
2023/05/22 05:09:31;;;;;;;31.08;27.88;;;17.50;99.90;;;;;;5049447;28;20033;-34
2023/05/22 05:11:57;;;;;;;31.70;28.30;;;17.50;99.90;;;;;;5053162;28;20036;-34
2023/05/22 05:14:23;;;;;;;33.80;30.25;;;17.50;99.90;;;;;;5059976;28;20103;-34
2023/05/22 05:16:51;;;;;;;32.80;29.35;;;17.50;99.90;;;;;;5058828;28;20431;-34
2023/05/22 05:19:20;;;;;;;31.67;28.40;;;17.50;99.90;;;;;;5049040;28;20448;-34
2023/05/22 05:21:48;;;;;;;33.63;30.13;;;17.50;99.90;;;;;;5066775;28;20053;-33
2023/05/22 05:24:18;;;;;;;32.75;29.33;;;17.50;99.90;;;;;;5046418;28;20076;-35
2023/05/22 05:26:44;;;;;;;33.28;29.85;;;17.50;99.90;;;;;;5051399;28;20145;-35
2023/05/22 05:29:11;;;;;;;31.88;28.63;;;17.60;99.90;;;;;;5059708;28;20063;-35
2023/05/22 05:31:37;;;;;;;32.35;28.17;;;17.60;99.90;;;;;;5044798;28;20047;-34
2023/05/22 05:34:03;;;;;;;32.80;29.50;;;17.60;99.90;;;;;;5049647;28;20106;-34
2023/05/22 05:36:30;;;;;;;31.90;28.60;;;17.60;99.90;;;;;;5062210;28;20513;-34
2023/05/22 05:38:57;;;;;;;33.60;30.20;;;17.70;99.90;;;;;;5052120;28;20044;-34
2023/05/22 05:41:23;;;;;;;33.90;29.13;;;17.70;99.90;;;;;;5037334;28;20498;-34
2023/05/22 05:43:50;;;;;;;31.63;28.25;;;17.70;99.90;;;;;;5063372;28;20074;-34
2023/05/22 05:46:16;;;;;;;30.33;27.25;;;17.70;99.90;;;;;;5046568;28;20451;-34
2023/05/22 05:48:42;;;;;;;30.63;27.40;;;17.70;99.90;;;;;;5051462;28;20071;-32
2023/05/22 05:51:09;;;;;;;32.33;26.33;;;17.70;99.90;;;;;;5049805;28;20041;-36
2023/05/22 05:53:39;;;;;;;33.00;29.45;;;17.70;99.90;;;;;;5051590;28;20055;-34
2023/05/22 05:56:07;;;;;;;30.77;27.52;;;17.70;99.90;;;;;;5053077;28;20090;-34
2023/05/22 05:58:32;;;;;;;32.28;27.83;;;17.70;99.90;;;;;;5068742;28;20047;-33
2023/05/22 06:00:58;;;;;;;27.58;24.77;;;17.70;99.90;;;;;;5035620;28;20418;-34
2023/05/22 06:03:24;;;;;;;30.42;27.35;;;17.80;99.90;;;;;;5050824;28;20709;-34
2023/05/22 06:05:50;;;;;;;30.52;27.27;;;17.80;99.90;;;;;;5034981;28;20039;-34
2023/05/22 06:08:18;;;;;;;30.33;27.15;;;17.80;99.90;;;;;;5035418;28;20036;-34
2023/05/22 06:10:45;;;;;;;28.88;25.83;;;17.80;99.90;;;;;;5052568;28;20424;-34
2023/05/22 06:13:11;;;;;;;28.92;25.88;;;17.90;99.90;;;;;;5052404;28;20044;-34
2023/05/22 06:15:36;;;;;;;29.58;26.73;;;17.90;99.90;;;;;;5052287;28;20524;-34
2023/05/22 06:18:02;;;;;;;27.58;24.60;;;18.00;99.90;;;;;;5053224;28;20064;-35
2023/05/22 06:20:28;;;;;;;28.10;25.42;;;18.00;99.90;;;;;;5052411;28;20137;-34
2023/05/22 06:22:54;;;;;;;28.17;25.27;;;18.10;99.90;;;;;;5052752;28;20037;-34
2023/05/22 06:25:20;;;;;;;26.65;23.83;;;18.10;99.90;;;;;;5052297;28;20129;-34
2023/05/22 06:27:46;;;;;;;26.52;23.83;;;18.20;99.90;;;;;;5051668;28;20075;-34
2023/05/22 06:30:12;;;;;;;26.98;24.33;;;18.20;99.90;;;;;;5052753;28;20037;-34
2023/05/22 06:32:38;;;;;;;26.10;23.67;;;18.30;99.90;;;;;;5052411;28;20094;-34
2023/05/22 06:35:04;;;;;;;26.55;23.90;;;18.30;99.90;;;;;;5053767;28;20075;-32
2023/05/22 06:37:34;;;;;;;27.75;25.05;;;18.30;99.90;;;;;;5053916;28;20041;-33
2023/05/22 06:40:00;;;;;;;28.17;25.38;;;18.40;99.90;;;;;;5035413;28;20052;-33
2023/05/22 06:42:26;;;;;;;28.60;25.77;;;18.50;99.90;;;;;;5052262;28;20043;-32
2023/05/22 06:44:52;;;;;;;27.08;24.55;;;18.60;99.90;;;;;;5052093;28;20361;-32
2023/05/22 06:47:18;;;;;;;26.30;23.70;;;18.70;99.90;;;;;;5052488;28;20032;-32
2023/05/22 06:49:44;;;;;;;26.70;24.15;;;18.70;99.90;;;;;;5052909;28;20044;-32
2023/05/22 06:52:10;;;;;;;26.42;23.92;;;18.80;99.90;;;;;;5052169;28;20126;-35
2023/05/22 06:54:36;;;;;;;26.35;23.65;;;18.90;99.90;;;;;;5065511;28;20104;-33
2023/05/22 06:57:02;;;;;;;26.02;23.50;;;19.00;99.90;;;;;;5034390;28;20117;-33
2023/05/22 06:59:29;;;;;;;26.55;23.95;;;19.10;99.90;;;;;;5070069;28;20063;-33
2023/05/22 07:01:55;;;;;;;27.23;24.52;;;19.10;99.90;;;;;;5069945;28;20043;-33
2023/05/22 07:04:21;;;;;;;25.90;23.27;;;19.10;99.90;;;;;;5069928;28;20029;-33
2023/05/22 07:06:47;;;;;;;25.50;23.00;;;19.20;99.90;;;;;;5056336;28;20033;-33
2023/05/22 07:09:14;;;;;;;26.42;23.75;;;19.20;99.90;;;;;;5048049;28;20542;-34
2023/05/22 07:11:42;;;;;;;26.17;23.75;;;19.20;99.90;;;;;;5051774;28;20032;-33
2023/05/22 07:14:08;;;;;;;26.40;23.80;;;19.10;99.90;;;;;;5054040;28;20044;-34
2023/05/22 07:16:35;;;;;;;26.33;23.73;;;19.10;99.90;;;;;;5069683;28;20071;-34
2023/05/22 07:19:02;;;;;;;26.58;23.98;;;19.10;99.90;;;;;;5057005;28;20040;-34
2023/05/22 07:21:30;;;;;;;26.83;24.13;;;19.00;99.90;;;;;;5073728;28;20064;-33
2023/05/22 07:23:56;;;;;;;24.85;22.55;;;19.00;99.90;;;;;;5050482;28;20567;-34
2023/05/22 07:26:22;;;;;;;26.02;23.73;;;18.90;99.90;;;;;;5075489;28;20029;-34
2023/05/22 07:28:48;;;;;;;26.58;23.83;;;18.90;99.90;;;;;;5057405;28;20119;-34
2023/05/22 07:31:15;;;;;;;27.70;25.08;;;18.90;99.90;;;;;;5057244;28;20036;-34
2023/05/22 07:33:41;;;;;;;26.00;23.30;;;18.90;99.90;;;;;;5073517;28;20042;-34
2023/05/22 07:36:07;;;;;;;27.30;24.60;;;19.00;99.90;;;;;;5055677;28;20072;-34
2023/05/22 07:38:32;;;;;;;26.42;23.60;;;19.00;99.90;;;;;;5047597;28;20072;-34
2023/05/22 07:40:58;;;;;;;26.25;23.63;;;19.00;99.90;;;;;;5056416;28;20037;-33
2023/05/22 07:43:24;;;;;;;27.70;24.98;;;19.00;99.90;;;;;;5055791;28;20127;-33
2023/05/22 07:45:50;;;;;;;27.00;24.30;;;19.00;99.90;;;;;;5056970;28;20066;-34
2023/05/22 07:48:16;;;;;;;26.45;23.85;;;19.00;99.90;;;;;;5056346;28;20090;-34
2023/05/22 07:50:44;;;;;;;26.23;23.60;;;19.00;99.90;;;;;;5074769;28;20504;-34
2023/05/22 07:53:10;;;;;;;28.00;25.20;;;19.10;99.90;;;;;;5056679;28;20505;-35
2023/05/22 07:55:36;;;;;;;27.23;24.42;;;19.10;99.90;;;;;;5068974;28;20044;-33
2023/05/22 07:58:03;;;;;;;26.38;23.50;;;19.10;99.90;;;;;;5056466;28;20032;-33
2023/05/22 08:00:30;;;;;;;26.08;23.58;;;19.20;99.90;;;;;;5055527;28;20098;-33
2023/05/22 08:02:55;;;;;;;25.50;22.77;;;19.20;99.90;;;;;;5055907;28;20048;-34
2023/05/22 08:05:21;;;;;;;26.38;23.58;;;19.30;99.90;;;;;;5055851;28;20085;-34
2023/05/22 08:07:47;;;;;;;28.80;24.95;;;19.30;99.90;;;;;;5054321;28;20063;-33
2023/05/22 08:10:16;;;;;;;26.95;24.17;;;19.40;99.90;;;;;;5072111;28;20044;-34
2023/05/22 08:12:42;;;;;;;26.00;23.20;;;19.40;99.90;;;;;;5072503;28;20044;-34
2023/05/22 08:15:08;;;;;;;25.58;23.08;;;19.40;99.90;;;;;;5075324;28;20033;-34
2023/05/22 08:17:34;;;;;;;24.27;22.00;;;19.40;99.90;;;;;;5054744;28;20044;-34
2023/05/22 08:20:00;;;;;;;24.02;21.73;;;19.40;99.90;;;;;;5056257;28;20036;-34
2023/05/22 08:22:28;;;;;;;24.80;22.35;;;19.40;99.90;;;;;;5055932;28;20059;-34
2023/05/22 08:24:53;;;;;;;24.23;21.83;;;19.40;99.90;;;;;;5073681;28;20037;-34
2023/05/22 08:27:19;;;;;;;23.85;21.40;;;19.60;99.90;;;;;;5055759;28;20043;-35
2023/05/22 08:29:46;;;;;;;23.77;20.63;;;19.60;99.90;;;;;;5057056;28;20440;-33
2023/05/22 08:32:12;;;;;;;23.65;21.17;;;19.70;99.90;;;;;;5056646;28;20389;-34
2023/05/22 08:34:39;;;;;;;23.25;21.02;;;19.90;99.90;;;;;;5055815;28;20032;-33
2023/05/22 08:37:06;;;;;;;23.20;20.92;;;19.90;99.90;;;;;;5062777;28;20033;-34
2023/05/22 08:39:31;;;;;;;23.60;21.20;;;20.00;99.90;;;;;;5073920;28;20076;-34
2023/05/22 08:41:58;;;;;;;21.27;19.13;;;20.00;99.90;;;;;;5048630;28;20041;-33
2023/05/22 08:44:24;;;;;;;21.45;19.35;;;20.10;99.90;;;;;;5060154;28;20031;-34
2023/05/22 08:46:51;;;;;;;22.33;20.13;;;20.20;99.90;;;;;;5071976;28;20032;-35
2023/05/22 08:49:19;;;;;;;20.58;18.45;;;20.10;99.90;;;;;;5071859;28;20032;-34
2023/05/22 08:51:50;;;;;;;22.80;20.33;;;20.20;99.90;;;;;;5054609;28;20560;-35
2023/05/22 08:54:21;;;;;;;21.98;19.67;;;20.40;99.90;;;;;;5048980;28;20051;-35
2023/05/22 08:56:48;;;;;;;21.23;19.08;;;20.50;99.90;;;;;;5068034;28;20044;-35
2023/05/22 08:59:15;;;;;;;20.52;18.38;;;20.70;99.90;;;;;;5073946;28;20508;-36
2023/05/22 09:01:41;;;;;;;19.48;17.58;;;21.40;99.90;;;;;;5053661;28;20056;-36
2023/05/22 09:04:07;;;;;;;18.95;17.05;;;22.00;99.90;;;;;;5056191;28;20039;-34
2023/05/22 09:06:33;;;;;;;19.00;16.80;;;22.40;99.90;;;;;;5055601;28;20044;-33
2023/05/22 09:09:00;;;;;;;19.40;17.40;;;22.60;99.90;;;;;;5051995;28;20037;-34
2023/05/22 09:11:26;;;;;;;17.65;15.95;;;22.90;99.90;;;;;;5056300;28;20113;-34
2023/05/22 09:14:05;;;;;;;18.33;16.60;;;23.20;99.90;;;;;;5041505;28;20041;-34
2023/05/22 09:16:30;;;;;;;18.30;16.60;;;23.60;99.90;;;;;;5055345;28;20041;-35
2023/05/22 09:18:56;;;;;;;17.70;15.85;;;24.00;99.90;;;;;;5066321;28;20055;-34
2023/05/22 09:21:28;;;;;;;16.63;15.02;;;24.10;99.90;;;;;;5038243;28;20071;-34
2023/05/22 09:23:58;;;;;;;17.23;15.55;;;24.50;99.90;;;;;;5064965;28;20036;-35
2023/05/22 09:26:28;;;;;;;18.35;16.65;;;24.70;99.90;;;;;;5071789;28;20432;-35
2023/05/22 09:28:53;;;;;;;16.33;14.93;;;24.70;99.90;;;;;;5072090;28;20432;-34
2023/05/22 09:31:19;;;;;;;15.82;14.48;;;24.90;99.90;;;;;;5071688;28;20132;-34
2023/05/22 09:33:45;;;;;;;17.23;15.50;;;25.20;99.90;;;;;;5071525;28;20093;-35
2023/05/22 09:36:12;;;;;;;17.33;15.43;;;25.00;99.90;;;;;;5071392;28;20131;-34
2023/05/22 09:38:38;;;;;;;16.30;14.73;;;25.30;99.90;;;;;;5071243;28;20040;-35
2023/05/22 09:41:05;;;;;;;17.42;15.93;;;25.80;99.90;;;;;;5072667;28;20051;-35
2023/05/22 09:43:32;;;;;;;16.67;15.15;;;26.10;99.90;;;;;;5071406;28;20041;-35
2023/05/22 09:46:05;;;;;;;14.88;13.52;;;26.60;99.90;;;;;;5071286;28;20040;-34
2023/05/22 09:48:37;;;;;;;14.45;13.38;;;26.90;99.90;;;;;;5059445;28;20489;-34
2023/05/22 09:51:04;;;;;;;16.27;14.87;;;27.00;99.90;;;;;;5054797;28;20504;-35
2023/05/22 09:53:32;;;;;;;16.10;14.68;;;27.20;99.90;;;;;;5054934;28;20045;-34
2023/05/22 09:55:59;;;;;;;15.00;13.65;;;27.50;99.90;;;;;;5054471;28;20083;-35
2023/05/22 09:58:27;;;;;;;15.18;13.88;;;27.70;99.90;;;;;;5054720;28;20032;-35
2023/05/22 10:00:57;;;;;;;15.05;13.55;;;27.70;99.90;;;;;;5054323;28;20090;-35
2023/05/22 10:03:23;;;;;;;16.60;15.00;;;27.60;99.90;;;;;;5054346;28;20043;-34
2023/05/22 10:05:52;;;;;;;15.38;13.88;;;27.30;99.90;;;;;;5054648;28;20039;-35
2023/05/22 10:08:27;;;;;;;16.27;14.60;;;27.10;99.90;;;;;;5054603;28;20501;-34
2023/05/22 10:10:53;;;;;;;15.00;13.07;;;26.90;99.90;;;;;;5054302;28;20040;-35
2023/05/22 10:13:19;;;;;;;14.68;13.27;;;27.00;99.90;;;;;;5072076;28;20062;-34
2023/05/22 10:15:50;;;;;;;16.08;14.40;;;27.00;99.90;;;;;;5054312;28;20040;-35
2023/05/22 10:18:17;;;;;;;15.70;14.20;;;26.50;99.90;;;;;;5054217;28;20402;-35
2023/05/22 10:20:45;;;;;;;15.52;13.95;;;26.30;99.90;;;;;;5054434;28;20048;-35
2023/05/22 10:23:13;;;;;;;16.80;15.23;;;26.20;99.90;;;;;;5037611;28;20045;-34
2023/05/22 10:25:38;;;;;;;16.38;14.88;;;26.10;99.90;;;;;;5054143;28;20120;-35
2023/05/22 10:28:06;;;;;;;13.95;12.60;;;25.90;99.90;;;;;;5053932;28;20119;-34
2023/05/22 10:30:43;;;;;;;14.82;13.32;;;25.80;99.90;;;;;;5054063;28;20052;-34
2023/05/22 10:33:34;;;;;;;15.90;14.30;;;25.80;99.90;;;;;;5053627;28;20051;-34
2023/05/22 10:36:25;;;;;;;15.15;13.73;;;25.60;99.90;;;;;;5054097;28;20450;-34
2023/05/22 10:39:07;;;;;;;15.30;13.77;;;25.70;99.90;;;;;;5053883;28;20054;-33
2023/05/22 10:41:34;;;;;;;16.07;14.40;;;25.80;99.90;;;;;;5056685;28;20040;-33
2023/05/22 10:44:01;;;;;;;15.75;14.15;;;25.80;99.90;;;;;;5073612;28;20090;-33
2023/05/22 10:46:32;;;;;;;15.50;14.00;;;25.90;99.90;;;;;;5056036;28;20036;-33
2023/05/22 10:48:59;;;;;;;15.60;13.95;;;26.10;99.90;;;;;;5054015;28;20036;-33
2023/05/22 10:51:25;;;;;;;15.93;13.85;;;26.30;99.90;;;;;;5055237;28;20048;-33
2023/05/22 10:54:04;;;;;;;15.85;14.02;;;26.60;99.90;;;;;;5073682;28;20040;-34
2023/05/22 10:56:37;;;;;;;14.93;13.30;;;26.80;99.90;;;;;;5040170;28;20040;-34
2023/05/22 10:59:12;;;;;;;;;;;26.80;99.90;;;;;;5056793;28;20129;-33
2023/05/22 11:01:38;;;;;;;15.95;14.35;;;26.60;99.90;;;;;;5055855;28;20292;-33
2023/05/22 11:04:05;;;;;;;15.73;13.82;;;26.70;99.90;;;;;;5055820;28;20039;-34
2023/05/22 11:06:45;;;;;;;15.45;13.73;;;27.00;99.90;;;;;;5056681;28;20363;-33
2023/05/22 11:09:25;;;;;;;14.50;13.10;;;27.20;99.90;;;;;;5056077;28;20040;-33
2023/05/22 11:12:20;;;;;;;14.82;13.45;;;27.40;99.90;;;;;;5055887;28;20063;-34
2023/05/22 11:15:05;;;;;;;15.70;14.20;;;27.80;99.90;;;;;;5052789;28;20563;-33
2023/05/22 11:17:45;;;;;;;14.05;12.75;;;28.00;99.90;;;;;;5052553;28;20043;-33
2023/05/22 11:20:18;;;;;;;14.63;13.20;;;28.10;99.90;;;;;;5055921;28;20041;-32
2023/05/22 11:22:49;;;;;;;;;;;28.60;99.90;;;;;;5056191;28;20044;-32
2023/05/22 11:25:19;;;;;;;15.57;14.00;;;28.60;99.90;;;;;;5056239;28;19969;-33
2023/05/22 11:27:46;;;;;;;15.65;14.30;;;28.90;99.90;;;;;;5055717;28;20123;-34
2023/05/22 11:30:13;;;;;;;16.55;14.93;;;29.00;99.20;;;;;;5039438;28;20490;-33
2023/05/22 11:32:44;;;;;;;14.10;12.95;;;29.00;99.40;;;;;;5056322;28;20474;-33
2023/05/22 11:35:20;;;;;;;14.77;13.30;;;29.00;98.50;;;;;;5055728;28;20036;-33
2023/05/22 11:37:51;;;;;;;15.32;13.82;;;29.20;99.90;;;;;;5055824;28;20083;-33
2023/05/22 11:40:20;;;;;;;14.50;13.15;;;29.60;93.10;;;;;;5055379;28;20422;-33
2023/05/22 11:42:46;;;;;;;15.10;13.80;;;29.70;95.30;;;;;;5072009;28;20042;-33
2023/05/22 11:45:13;;;;;;;15.45;14.00;;;30.10;93.30;;;;;;5055426;28;20024;-33
2023/05/22 11:47:39;;;;;;;14.30;13.10;;;30.10;91.00;;;;;;5055368;28;20466;-33
2023/05/22 11:50:08;;;;;;;14.63;13.40;;;30.30;86.70;;;;;;5038474;28;20043;-33
2023/05/22 11:52:35;;;;;;;13.32;12.13;;;30.70;82.20;;;;;;5054927;28;20086;-34
2023/05/22 11:55:04;;;;;;;14.77;13.48;;;30.80;80.30;;;;;;5055448;28;20036;-32
2023/05/22 11:57:30;;;;;;;14.73;13.32;;;30.70;74.00;;;;;;5071395;28;20032;-33
2023/05/22 11:59:57;;;;;;;15.95;14.40;;;30.80;69.80;;;;;;5055145;28;20575;-33
2023/05/22 12:02:23;;;;;;;16.77;15.27;;;30.90;68.20;;;;;;5055038;28;20466;-33
2023/05/22 12:04:56;;;;;;;17.42;15.93;;;30.70;69.10;;;;;;5055003;28;20138;-33
2023/05/22 12:07:24;;;;;;;17.25;15.57;;;30.70;65.50;;;;;;5054732;28;20055;-33
2023/05/22 12:09:50;;;;;;;16.95;15.55;;;30.70;65.60;;;;;;5055177;28;20535;-33
2023/05/22 12:12:17;;;;;;;16.67;15.07;;;30.80;62.50;;;;;;5054941;28;20080;-33
2023/05/22 12:14:47;;;;;;;15.07;13.85;;;30.80;62.40;;;;;;5048308;28;20047;-33
2023/05/22 12:17:13;;;;;;;15.23;13.77;;;31.20;63.40;;;;;;5055539;28;20028;-33
2023/05/22 12:19:40;;;;;;;16.48;15.02;;;31.30;63.20;;;;;;5055025;28;20032;-33
2023/05/22 12:22:07;;;;;;;16.17;14.88;;;31.40;60.30;;;;;;5055675;28;20068;-33
2023/05/22 12:24:46;;;;;;;15.00;13.77;;;31.60;59.00;;;;;;5054579;28;20098;-34
2023/05/22 12:27:13;;;;;;;16.30;14.90;;;32.00;57.60;;;;;;5055104;28;20448;-33
2023/05/22 12:29:40;;;;;;;16.65;15.07;;;32.20;58.20;;;;;;5054412;28;20031;-33
2023/05/22 12:32:11;;;;;;;13.82;12.63;;;32.40;56.60;;;;;;5055503;28;20048;-33